Newcastle University, New South Wales

3:38 PM AEST on August 26, 2016 (GMT +1000)
INEWSOUT101 | | Change Station

Elev 95 ft 32.92 °S, 151.62 °E | Updated 18 seconds ago

Overcast
Overcast
59.4 °F
Feels Like 59.4 °F
N
8.1
Wind Variable Wind from South
Gusts 8.1 mph

Today
High -- | Low -- °F
--% Chance of Precip.
Yesterday
High -- | Low -- °F
Precip. -- in
Pressure 30.04 in
Visibility 6.2 miles
Clouds Scattered Clouds 3500 ft
Mostly Cloudy 5500 ft
Dew Point 43 °F
Humidity 54%
Rainfall 0.00 in
Snow Depth Not available.
6:18 AM 5:32 PM
Last Quarter, 38% visible
METAR YWLM 260500Z 20010KT 9999 -SHRA SCT035 BKN055 14/05 Q1017 INTER 0500/0600 5000 SHRA SCT010
Pressure 30.04 in
Visibility 6.2 miles
Clouds Scattered Clouds 3500 ft
Mostly Cloudy 5500 ft
Dew Point 43 °F
Humidity 54%
Rainfall 0.00 in
Snow Depth Not available.
6:18 AM 5:32 PM
Last Quarter, 38% visible
METAR YWLM 260500Z 20010KT 9999 -SHRA SCT035 BKN055 14/05 Q1017 INTER 0500/0600 5000 SHRA SCT010

10-Day Weather Forecast

Almanac

Astronomy

Aug. 26, 2016 Rise Set
Actual Time
Civil Twilight
Nautical Twilight
Astronomical Twilight
Moon
Length of Visible Light
Length of Day
Tomorrow will be .
, % of the Moon is Illuminated

Today's Extremes

Country Highs Country Lows

Community

WunderPhotos

Upload Photos

1,935,057 photos uploaded!

WunderBlog® & News

Nearby

Air Quality

  Air Quality AQ Index Pollutant
Not available.

Snow Depth

Station Depth Elevation

Earthquake Activity

City Distance Mag. Time & Date
Minimum magnitude displayed is 2.5.

Coastal Water Temperatures

Place Temperature

Stations

Nearby Weather Stations

Station Location Temp. Windchill Dew Point Humidity Wind Precip. Elev Updated Type